METAR Torp

ENTO 281420Z 02016KT 360V080 CAVOK 06/M08 Q1024 TEMPO 02016G26KT

METAR Gardermoen

ENGM 281420Z 36018KT 9999 VCSH FEW035 FEW050CB 04/M11 Q1025 TEMPO 36018G28KT

Webcam Kjeller